sensor_id;sensor_type;location;lat;lon;timestamp;P1;durP1;ratioP1;P2;durP2;ratioP2
16963;SDS011;8598;50.508;10.436;2023-11-18T00:02:12;11.03;;;6.97;;
16963;SDS011;8598;50.508;10.436;2023-11-18T00:04:39;16.37;;;7.67;;
16963;SDS011;8598;50.508;10.436;2023-11-18T00:07:06;13.67;;;8.17;;
16963;SDS011;8598;50.508;10.436;2023-11-18T00:09:34;12.20;;;6.97;;
16963;SDS011;8598;50.508;10.436;2023-11-18T00:12:01;15.67;;;8.27;;
16963;SDS011;8598;50.508;10.436;2023-11-18T00:14:29;14.43;;;7.90;;
16963;SDS011;8598;50.508;10.436;2023-11-18T00:16:54;9.90;;;7.07;;
16963;SDS011;8598;50.508;10.436;2023-11-18T00:19:24;15.23;;;7.37;;
16963;SDS011;8598;50.508;10.436;2023-11-18T00:21:50;10.47;;;7.80;;
16963;SDS011;8598;50.508;10.436;2023-11-18T00:24:17;11.20;;;6.70;;
16963;SDS011;8598;50.508;10.436;2023-11-18T00:26:45;11.00;;;7.07;;
16963;SDS011;8598;50.508;10.436;2023-11-18T00:29:12;12.70;;;7.67;;
16963;SDS011;8598;50.508;10.436;2023-11-18T00:31:38;10.33;;;6.60;;
16963;SDS011;8598;50.508;10.436;2023-11-18T00:34:05;11.20;;;7.20;;
16963;SDS011;8598;50.508;10.436;2023-11-18T00:36:32;13.47;;;7.33;;
16963;SDS011;8598;50.508;10.436;2023-11-18T00:38:58;13.17;;;7.50;;
16963;SDS011;8598;50.508;10.436;2023-11-18T00:41:25;10.40;;;6.67;;
16963;SDS011;8598;50.508;10.436;2023-11-18T00:43:53;9.53;;;6.67;;
16963;SDS011;8598;50.508;10.436;2023-11-18T00:46:20;11.00;;;6.53;;
16963;SDS011;8598;50.508;10.436;2023-11-18T00:48:47;11.33;;;6.87;;
16963;SDS011;8598;50.508;10.436;2023-11-18T00:51:14;12.47;;;7.10;;
16963;SDS011;8598;50.508;10.436;2023-11-18T00:53:41;14.83;;;7.13;;
16963;SDS011;8598;50.508;10.436;2023-11-18T00:56:12;11.23;;;6.40;;
16963;SDS011;8598;50.508;10.436;2023-11-18T00:58:43;12.13;;;6.27;;
16963;SDS011;8598;50.508;10.436;2023-11-18T01:01:11;10.00;;;6.37;;
16963;SDS011;8598;50.508;10.436;2023-11-18T01:03:37;10.37;;;6.63;;
16963;SDS011;8598;50.508;10.436;2023-11-18T01:06:04;8.53;;;6.23;;
16963;SDS011;8598;50.508;10.436;2023-11-18T01:08:32;12.93;;;8.23;;
16963;SDS011;8598;50.508;10.436;2023-11-18T01:10:58;16.40;;;6.87;;
16963;SDS011;8598;50.508;10.436;2023-11-18T01:13:25;10.47;;;6.20;;
16963;SDS011;8598;50.508;10.436;2023-11-18T01:15:52;11.00;;;6.67;;
16963;SDS011;8598;50.508;10.436;2023-11-18T01:18:20;10.57;;;7.13;;
16963;SDS011;8598;50.508;10.436;2023-11-18T01:20:47;9.77;;;6.87;;
16963;SDS011;8598;50.508;10.436;2023-11-18T01:23:13;12.10;;;6.43;;
16963;SDS011;8598;50.508;10.436;2023-11-18T01:25:40;10.60;;;6.90;;
16963;SDS011;8598;50.508;10.436;2023-11-18T01:28:07;11.97;;;6.47;;
16963;SDS011;8598;50.508;10.436;2023-11-18T01:30:34;9.93;;;6.77;;
16963;SDS011;8598;50.508;10.436;2023-11-18T01:33:01;9.17;;;6.53;;
16963;SDS011;8598;50.508;10.436;2023-11-18T01:35:30;9.63;;;5.83;;
16963;SDS011;8598;50.508;10.436;2023-11-18T01:37:57;12.17;;;7.10;;
16963;SDS011;8598;50.508;10.436;2023-11-18T01:40:23;9.80;;;6.80;;
16963;SDS011;8598;50.508;10.436;2023-11-18T01:42:50;10.80;;;6.17;;
16963;SDS011;8598;50.508;10.436;2023-11-18T01:45:17;9.30;;;6.53;;
16963;SDS011;8598;50.508;10.436;2023-11-18T01:47:45;13.53;;;6.27;;
16963;SDS011;8598;50.508;10.436;2023-11-18T01:50:13;11.30;;;6.70;;
16963;SDS011;8598;50.508;10.436;2023-11-18T01:52:43;8.70;;;6.23;;
16963;SDS011;8598;50.508;10.436;2023-11-18T01:55:11;12.43;;;7.20;;
16963;SDS011;8598;50.508;10.436;2023-11-18T01:57:38;8.93;;;6.43;;
16963;SDS011;8598;50.508;10.436;2023-11-18T02:00:09;11.07;;;6.43;;
16963;SDS011;8598;50.508;10.436;2023-11-18T02:02:37;10.97;;;6.67;;
16963;SDS011;8598;50.508;10.436;2023-11-18T02:05:04;13.23;;;7.47;;
16963;SDS011;8598;50.508;10.436;2023-11-18T02:07:32;12.67;;;6.97;;
16963;SDS011;8598;50.508;10.436;2023-11-18T02:10:02;11.33;;;6.83;;
16963;SDS011;8598;50.508;10.436;2023-11-18T02:12:35;11.07;;;6.87;;
16963;SDS011;8598;50.508;10.436;2023-11-18T02:15:10;11.23;;;6.97;;
16963;SDS011;8598;50.508;10.436;2023-11-18T02:17:38;8.63;;;6.00;;
16963;SDS011;8598;50.508;10.436;2023-11-18T02:20:07;11.77;;;5.80;;
16963;SDS011;8598;50.508;10.436;2023-11-18T02:22:41;8.20;;;6.27;;
16963;SDS011;8598;50.508;10.436;2023-11-18T02:25:10;10.47;;;7.77;;
16963;SDS011;8598;50.508;10.436;2023-11-18T02:27:44;7.53;;;5.93;;
16963;SDS011;8598;50.508;10.436;2023-11-18T02:30:11;9.13;;;5.57;;
16963;SDS011;8598;50.508;10.436;2023-11-18T02:32:43;11.63;;;6.77;;
16963;SDS011;8598;50.508;10.436;2023-11-18T02:35:15;14.37;;;7.23;;
16963;SDS011;8598;50.508;10.436;2023-11-18T02:37:50;10.87;;;7.03;;
16963;SDS011;8598;50.508;10.436;2023-11-18T02:40:20;12.30;;;6.37;;
16963;SDS011;8598;50.508;10.436;2023-11-18T02:42:56;10.37;;;6.60;;
16963;SDS011;8598;50.508;10.436;2023-11-18T02:45:25;11.87;;;7.13;;
16963;SDS011;8598;50.508;10.436;2023-11-18T02:47:53;10.33;;;6.73;;
16963;SDS011;8598;50.508;10.436;2023-11-18T02:50:22;11.83;;;6.53;;
16963;SDS011;8598;50.508;10.436;2023-11-18T02:52:49;7.70;;;5.40;;
16963;SDS011;8598;50.508;10.436;2023-11-18T02:55:16;10.70;;;6.23;;
16963;SDS011;8598;50.508;10.436;2023-11-18T02:57:43;12.53;;;7.07;;
16963;SDS011;8598;50.508;10.436;2023-11-18T03:00:11;12.07;;;6.47;;
16963;SDS011;8598;50.508;10.436;2023-11-18T03:02:43;13.77;;;7.50;;
16963;SDS011;8598;50.508;10.436;2023-11-18T03:05:11;10.60;;;7.17;;
16963;SDS011;8598;50.508;10.436;2023-11-18T03:07:37;11.33;;;6.87;;
16963;SDS011;8598;50.508;10.436;2023-11-18T03:10:05;10.40;;;6.30;;
16963;SDS011;8598;50.508;10.436;2023-11-18T03:12:37;10.93;;;6.70;;
16963;SDS011;8598;50.508;10.436;2023-11-18T03:15:04;12.10;;;7.13;;
16963;SDS011;8598;50.508;10.436;2023-11-18T03:17:35;8.90;;;6.93;;
16963;SDS011;8598;50.508;10.436;2023-11-18T03:20:03;10.27;;;6.53;;
16963;SDS011;8598;50.508;10.436;2023-11-18T03:22:34;13.70;;;6.87;;
16963;SDS011;8598;50.508;10.436;2023-11-18T03:25:00;11.23;;;6.87;;
16963;SDS011;8598;50.508;10.436;2023-11-18T03:27:27;15.77;;;7.27;;
16963;SDS011;8598;50.508;10.436;2023-11-18T03:29:55;15.97;;;7.43;;
16963;SDS011;8598;50.508;10.436;2023-11-18T03:32:21;16.13;;;7.70;;
16963;SDS011;8598;50.508;10.436;2023-11-18T03:34:49;12.10;;;8.00;;
16963;SDS011;8598;50.508;10.436;2023-11-18T03:37:16;17.93;;;7.83;;
16963;SDS011;8598;50.508;10.436;2023-11-18T03:39:44;19.20;;;7.80;;
16963;SDS011;8598;50.508;10.436;2023-11-18T03:42:11;11.20;;;7.67;;
16963;SDS011;8598;50.508;10.436;2023-11-18T03:44:38;12.53;;;7.20;;
16963;SDS011;8598;50.508;10.436;2023-11-18T03:47:05;17.43;;;7.80;;
16963;SDS011;8598;50.508;10.436;2023-11-18T03:49:32;15.37;;;6.97;;
16963;SDS011;8598;50.508;10.436;2023-11-18T03:52:00;14.70;;;7.90;;
16963;SDS011;8598;50.508;10.436;2023-11-18T03:54:27;14.23;;;7.30;;
16963;SDS011;8598;50.508;10.436;2023-11-18T03:56:53;12.70;;;7.40;;
16963;SDS011;8598;50.508;10.436;2023-11-18T03:59:20;12.17;;;7.40;;
16963;SDS011;8598;50.508;10.436;2023-11-18T04:01:47;14.13;;;7.73;;
16963;SDS011;8598;50.508;10.436;2023-11-18T04:04:15;12.80;;;7.30;;
16963;SDS011;8598;50.508;10.436;2023-11-18T04:06:42;10.77;;;6.63;;
16963;SDS011;8598;50.508;10.436;2023-11-18T04:09:11;10.77;;;7.37;;
16963;SDS011;8598;50.508;10.436;2023-11-18T04:11:38;10.20;;;6.80;;
16963;SDS011;8598;50.508;10.436;2023-11-18T04:14:05;9.90;;;6.33;;
16963;SDS011;8598;50.508;10.436;2023-11-18T04:16:32;14.90;;;7.43;;
16963;SDS011;8598;50.508;10.436;2023-11-18T04:18:59;12.67;;;7.60;;
16963;SDS011;8598;50.508;10.436;2023-11-18T04:21:26;16.83;;;8.13;;
16963;SDS011;8598;50.508;10.436;2023-11-18T04:23:52;8.90;;;7.07;;
16963;SDS011;8598;50.508;10.436;2023-11-18T04:26:21;13.93;;;7.33;;
16963;SDS011;8598;50.508;10.436;2023-11-18T04:28:49;11.40;;;6.47;;
16963;SDS011;8598;50.508;10.436;2023-11-18T04:31:16;15.23;;;6.73;;
16963;SDS011;8598;50.508;10.436;2023-11-18T04:33:42;12.77;;;8.03;;
16963;SDS011;8598;50.508;10.436;2023-11-18T04:36:09;11.30;;;6.80;;
16963;SDS011;8598;50.508;10.436;2023-11-18T04:38:36;20.53;;;7.57;;
16963;SDS011;8598;50.508;10.436;2023-11-18T04:41:03;11.87;;;7.37;;
16963;SDS011;8598;50.508;10.436;2023-11-18T04:43:32;10.07;;;6.70;;
16963;SDS011;8598;50.508;10.436;2023-11-18T04:45:59;12.67;;;8.20;;
16963;SDS011;8598;50.508;10.436;2023-11-18T04:48:26;14.00;;;7.43;;
16963;SDS011;8598;50.508;10.436;2023-11-18T04:50:53;12.33;;;7.70;;
16963;SDS011;8598;50.508;10.436;2023-11-18T04:53:20;27.80;;;8.13;;
16963;SDS011;8598;50.508;10.436;2023-11-18T04:55:47;19.27;;;7.77;;
16963;SDS011;8598;50.508;10.436;2023-11-18T04:58:13;13.53;;;8.17;;
16963;SDS011;8598;50.508;10.436;2023-11-18T05:00:42;22.63;;;8.60;;
16963;SDS011;8598;50.508;10.436;2023-11-18T05:03:09;13.93;;;7.43;;
16963;SDS011;8598;50.508;10.436;2023-11-18T05:05:36;14.93;;;7.70;;
16963;SDS011;8598;50.508;10.436;2023-11-18T05:08:03;17.70;;;7.97;;
16963;SDS011;8598;50.508;10.436;2023-11-18T05:10:31;24.00;;;8.37;;
16963;SDS011;8598;50.508;10.436;2023-11-18T05:12:58;28.17;;;11.77;;
16963;SDS011;8598;50.508;10.436;2023-11-18T05:15:25;20.67;;;9.67;;
16963;SDS011;8598;50.508;10.436;2023-11-18T05:17:53;28.57;;;10.10;;
16963;SDS011;8598;50.508;10.436;2023-11-18T05:20:20;27.57;;;12.50;;
16963;SDS011;8598;50.508;10.436;2023-11-18T05:22:47;30.43;;;11.63;;
16963;SDS011;8598;50.508;10.436;2023-11-18T05:25:14;30.10;;;13.20;;
16963;SDS011;8598;50.508;10.436;2023-11-18T05:27:40;33.47;;;10.13;;
16963;SDS011;8598;50.508;10.436;2023-11-18T05:30:08;24.53;;;11.23;;
16963;SDS011;8598;50.508;10.436;2023-11-18T05:32:36;17.97;;;9.27;;
16963;SDS011;8598;50.508;10.436;2023-11-18T05:35:04;21.53;;;8.90;;
16963;SDS011;8598;50.508;10.436;2023-11-18T05:37:32;21.23;;;8.57;;
16963;SDS011;8598;50.508;10.436;2023-11-18T05:40:03;18.63;;;8.43;;
16963;SDS011;8598;50.508;10.436;2023-11-18T05:42:32;23.93;;;8.90;;
16963;SDS011;8598;50.508;10.436;2023-11-18T05:45:01;19.27;;;7.67;;
16963;SDS011;8598;50.508;10.436;2023-11-18T05:47:27;13.40;;;7.97;;
16963;SDS011;8598;50.508;10.436;2023-11-18T05:49:54;14.93;;;7.77;;
16963;SDS011;8598;50.508;10.436;2023-11-18T05:52:22;16.43;;;8.87;;
16963;SDS011;8598;50.508;10.436;2023-11-18T05:54:49;15.40;;;8.13;;
16963;SDS011;8598;50.508;10.436;2023-11-18T05:57:16;20.17;;;8.53;;
16963;SDS011;8598;50.508;10.436;2023-11-18T05:59:42;31.03;;;8.50;;
16963;SDS011;8598;50.508;10.436;2023-11-18T06:02:09;18.57;;;8.73;;
16963;SDS011;8598;50.508;10.436;2023-11-18T06:04:38;16.30;;;8.23;;
16963;SDS011;8598;50.508;10.436;2023-11-18T06:07:07;16.83;;;7.97;;
16963;SDS011;8598;50.508;10.436;2023-11-18T06:09:35;15.03;;;7.90;;
16963;SDS011;8598;50.508;10.436;2023-11-18T06:12:01;12.17;;;7.77;;
16963;SDS011;8598;50.508;10.436;2023-11-18T06:14:33;14.27;;;8.33;;
16963;SDS011;8598;50.508;10.436;2023-11-18T06:17:00;15.07;;;7.40;;
16963;SDS011;8598;50.508;10.436;2023-11-18T06:19:27;13.40;;;8.13;;
16963;SDS011;8598;50.508;10.436;2023-11-18T06:21:54;14.63;;;8.37;;
16963;SDS011;8598;50.508;10.436;2023-11-18T06:24:20;17.33;;;10.13;;
16963;SDS011;8598;50.508;10.436;2023-11-18T06:26:48;16.40;;;8.40;;
16963;SDS011;8598;50.508;10.436;2023-11-18T06:29:15;11.73;;;8.77;;
16963;SDS011;8598;50.508;10.436;2023-11-18T06:31:42;17.10;;;8.53;;
16963;SDS011;8598;50.508;10.436;2023-11-18T06:34:08;14.13;;;9.30;;
16963;SDS011;8598;50.508;10.436;2023-11-18T06:36:37;19.87;;;13.43;;
16963;SDS011;8598;50.508;10.436;2023-11-18T06:39:04;19.77;;;11.53;;
16963;SDS011;8598;50.508;10.436;2023-11-18T06:41:32;15.30;;;9.60;;
16963;SDS011;8598;50.508;10.436;2023-11-18T06:44:01;16.40;;;9.50;;
16963;SDS011;8598;50.508;10.436;2023-11-18T06:46:34;12.67;;;8.37;;
16963;SDS011;8598;50.508;10.436;2023-11-18T06:49:04;12.33;;;7.33;;
16963;SDS011;8598;50.508;10.436;2023-11-18T06:51:32;17.63;;;8.13;;
16963;SDS011;8598;50.508;10.436;2023-11-18T06:54:03;22.63;;;11.87;;
16963;SDS011;8598;50.508;10.436;2023-11-18T06:56:33;29.40;;;12.57;;
16963;SDS011;8598;50.508;10.436;2023-11-18T06:59:03;17.73;;;10.10;;
16963;SDS011;8598;50.508;10.436;2023-11-18T07:01:31;15.67;;;8.77;;
16963;SDS011;8598;50.508;10.436;2023-11-18T07:03:58;18.50;;;7.97;;
16963;SDS011;8598;50.508;10.436;2023-11-18T07:06:25;14.67;;;8.07;;
16963;SDS011;8598;50.508;10.436;2023-11-18T07:08:52;17.53;;;8.87;;
16963;SDS011;8598;50.508;10.436;2023-11-18T07:11:20;18.13;;;8.73;;
16963;SDS011;8598;50.508;10.436;2023-11-18T07:13:47;24.30;;;14.20;;
16963;SDS011;8598;50.508;10.436;2023-11-18T07:16:15;21.47;;;10.97;;
16963;SDS011;8598;50.508;10.436;2023-11-18T07:18:43;21.07;;;11.13;;
16963;SDS011;8598;50.508;10.436;2023-11-18T07:21:10;15.27;;;10.07;;
16963;SDS011;8598;50.508;10.436;2023-11-18T07:23:37;13.37;;;9.40;;
16963;SDS011;8598;50.508;10.436;2023-11-18T07:26:04;17.13;;;10.57;;
16963;SDS011;8598;50.508;10.436;2023-11-18T07:28:31;13.73;;;9.17;;
16963;SDS011;8598;50.508;10.436;2023-11-18T07:30:57;13.53;;;8.97;;
16963;SDS011;8598;50.508;10.436;2023-11-18T07:33:26;12.90;;;9.17;;
16963;SDS011;8598;50.508;10.436;2023-11-18T07:35:52;13.50;;;8.43;;
16963;SDS011;8598;50.508;10.436;2023-11-18T07:38:20;15.77;;;9.57;;
16963;SDS011;8598;50.508;10.436;2023-11-18T07:40:46;14.57;;;10.57;;
16963;SDS011;8598;50.508;10.436;2023-11-18T07:43:13;17.83;;;10.83;;
16963;SDS011;8598;50.508;10.436;2023-11-18T07:45:41;27.80;;;16.53;;
16963;SDS011;8598;50.508;10.436;2023-11-18T07:48:08;21.90;;;12.93;;
16963;SDS011;8598;50.508;10.436;2023-11-18T07:50:38;15.97;;;10.37;;
16963;SDS011;8598;50.508;10.436;2023-11-18T07:53:06;13.90;;;8.63;;
16963;SDS011;8598;50.508;10.436;2023-11-18T07:55:34;12.10;;;8.90;;
16963;SDS011;8598;50.508;10.436;2023-11-18T07:58:04;13.93;;;8.07;;
16963;SDS011;8598;50.508;10.436;2023-11-18T08:00:35;12.07;;;8.27;;
16963;SDS011;8598;50.508;10.436;2023-11-18T08:03:03;12.57;;;8.07;;
16963;SDS011;8598;50.508;10.436;2023-11-18T08:05:32;9.47;;;6.00;;
16963;SDS011;8598;50.508;10.436;2023-11-18T08:08:00;9.33;;;6.17;;
16963;SDS011;8598;50.508;10.436;2023-11-18T08:10:27;7.77;;;5.50;;
16963;SDS011;8598;50.508;10.436;2023-11-18T08:12:53;9.57;;;6.57;;
16963;SDS011;8598;50.508;10.436;2023-11-18T08:15:20;11.53;;;6.73;;
16963;SDS011;8598;50.508;10.436;2023-11-18T08:17:47;8.83;;;6.60;;
16963;SDS011;8598;50.508;10.436;2023-11-18T08:20:14;13.67;;;8.27;;
16963;SDS011;8598;50.508;10.436;2023-11-18T08:22:41;10.47;;;6.90;;
16963;SDS011;8598;50.508;10.436;2023-11-18T08:25:10;13.13;;;8.47;;
16963;SDS011;8598;50.508;10.436;2023-11-18T08:27:38;15.27;;;9.87;;
16963;SDS011;8598;50.508;10.436;2023-11-18T08:30:05;13.53;;;8.97;;
16963;SDS011;8598;50.508;10.436;2023-11-18T08:32:36;12.57;;;8.87;;
16963;SDS011;8598;50.508;10.436;2023-11-18T08:35:04;12.80;;;8.67;;
16963;SDS011;8598;50.508;10.436;2023-11-18T08:37:32;12.40;;;8.40;;
16963;SDS011;8598;50.508;10.436;2023-11-18T08:40:00;10.07;;;7.13;;
16963;SDS011;8598;50.508;10.436;2023-11-18T08:42:28;11.13;;;7.07;;
16963;SDS011;8598;50.508;10.436;2023-11-18T08:44:56;10.63;;;7.27;;
16963;SDS011;8598;50.508;10.436;2023-11-18T08:47:24;10.60;;;8.20;;
16963;SDS011;8598;50.508;10.436;2023-11-18T08:49:50;10.33;;;6.23;;
16963;SDS011;8598;50.508;10.436;2023-11-18T08:52:17;17.63;;;11.73;;
16963;SDS011;8598;50.508;10.436;2023-11-18T08:54:44;18.17;;;10.70;;
16963;SDS011;8598;50.508;10.436;2023-11-18T08:57:24;16.60;;;10.20;;
16963;SDS011;8598;50.508;10.436;2023-11-18T08:59:53;14.93;;;9.37;;
16963;SDS011;8598;50.508;10.436;2023-11-18T09:02:23;12.00;;;8.17;;
16963;SDS011;8598;50.508;10.436;2023-11-18T09:04:49;12.80;;;8.23;;
16963;SDS011;8598;50.508;10.436;2023-11-18T09:07:17;11.63;;;8.03;;
16963;SDS011;8598;50.508;10.436;2023-11-18T09:09:44;19.37;;;7.87;;
16963;SDS011;8598;50.508;10.436;2023-11-18T09:12:14;10.20;;;6.90;;
16963;SDS011;8598;50.508;10.436;2023-11-18T09:14:43;10.50;;;7.77;;
16963;SDS011;8598;50.508;10.436;2023-11-18T09:17:14;10.53;;;8.07;;
16963;SDS011;8598;50.508;10.436;2023-11-18T09:19:40;12.53;;;7.97;;
16963;SDS011;8598;50.508;10.436;2023-11-18T09:22:07;11.60;;;7.87;;
16963;SDS011;8598;50.508;10.436;2023-11-18T09:24:38;11.10;;;7.47;;
16963;SDS011;8598;50.508;10.436;2023-11-18T09:27:05;9.20;;;6.53;;
16963;SDS011;8598;50.508;10.436;2023-11-18T09:29:31;8.30;;;6.00;;
16963;SDS011;8598;50.508;10.436;2023-11-18T09:31:59;11.50;;;7.43;;
16963;SDS011;8598;50.508;10.436;2023-11-18T09:34:32;8.10;;;5.87;;
16963;SDS011;8598;50.508;10.436;2023-11-18T09:36:59;10.67;;;6.20;;
16963;SDS011;8598;50.508;10.436;2023-11-18T09:39:25;11.53;;;6.97;;
16963;SDS011;8598;50.508;10.436;2023-11-18T09:42:03;10.47;;;7.10;;
16963;SDS011;8598;50.508;10.436;2023-11-18T09:44:33;10.63;;;7.40;;
16963;SDS011;8598;50.508;10.436;2023-11-18T09:47:03;14.60;;;8.17;;
16963;SDS011;8598;50.508;10.436;2023-11-18T09:49:38;15.77;;;10.20;;
16963;SDS011;8598;50.508;10.436;2023-11-18T09:52:07;17.40;;;9.67;;
16963;SDS011;8598;50.508;10.436;2023-11-18T09:54:39;13.23;;;10.17;;
16963;SDS011;8598;50.508;10.436;2023-11-18T09:57:12;19.03;;;10.10;;
16963;SDS011;8598;50.508;10.436;2023-11-18T09:59:45;13.03;;;8.80;;
16963;SDS011;8598;50.508;10.436;2023-11-18T10:02:19;14.00;;;9.93;;
16963;SDS011;8598;50.508;10.436;2023-11-18T10:04:49;13.47;;;9.53;;
16963;SDS011;8598;50.508;10.436;2023-11-18T10:07:22;11.40;;;8.23;;
16963;SDS011;8598;50.508;10.436;2023-11-18T10:09:52;12.47;;;7.97;;
16963;SDS011;8598;50.508;10.436;2023-11-18T10:12:22;10.57;;;7.43;;
16963;SDS011;8598;50.508;10.436;2023-11-18T10:14:49;15.77;;;10.43;;
16963;SDS011;8598;50.508;10.436;2023-11-18T10:17:17;15.73;;;11.07;;
16963;SDS011;8598;50.508;10.436;2023-11-18T10:19:52;16.87;;;10.97;;
16963;SDS011;8598;50.508;10.436;2023-11-18T10:22:23;13.67;;;9.93;;
16963;SDS011;8598;50.508;10.436;2023-11-18T10:24:52;14.73;;;10.00;;
16963;SDS011;8598;50.508;10.436;2023-11-18T10:27:20;19.57;;;10.00;;
16963;SDS011;8598;50.508;10.436;2023-11-18T10:29:50;13.40;;;8.90;;
16963;SDS011;8598;50.508;10.436;2023-11-18T10:32:20;15.40;;;9.50;;
16963;SDS011;8598;50.508;10.436;2023-11-18T10:34:53;16.70;;;9.70;;
16963;SDS011;8598;50.508;10.436;2023-11-18T10:37:21;13.97;;;9.67;;
16963;SDS011;8598;50.508;10.436;2023-11-18T10:39:49;16.70;;;9.40;;
16963;SDS011;8598;50.508;10.436;2023-11-18T10:42:16;16.33;;;10.10;;
16963;SDS011;8598;50.508;10.436;2023-11-18T10:44:54;15.83;;;9.70;;
16963;SDS011;8598;50.508;10.436;2023-11-18T10:47:23;18.37;;;9.90;;
16963;SDS011;8598;50.508;10.436;2023-11-18T10:49:51;16.83;;;9.87;;
16963;SDS011;8598;50.508;10.436;2023-11-18T10:52:21;14.27;;;9.20;;
16963;SDS011;8598;50.508;10.436;2023-11-18T10:54:51;17.63;;;10.13;;
16963;SDS011;8598;50.508;10.436;2023-11-18T10:57:19;16.13;;;9.43;;
16963;SDS011;8598;50.508;10.436;2023-11-18T10:59:57;15.07;;;9.73;;
16963;SDS011;8598;50.508;10.436;2023-11-18T11:02:24;17.37;;;9.60;;
16963;SDS011;8598;50.508;10.436;2023-11-18T11:04:51;16.93;;;9.57;;
16963;SDS011;8598;50.508;10.436;2023-11-18T11:07:19;14.27;;;9.50;;
16963;SDS011;8598;50.508;10.436;2023-11-18T11:09:48;14.40;;;9.27;;
16963;SDS011;8598;50.508;10.436;2023-11-18T11:12:21;12.60;;;9.13;;
16963;SDS011;8598;50.508;10.436;2023-11-18T11:14:54;15.93;;;10.00;;
16963;SDS011;8598;50.508;10.436;2023-11-18T11:17:27;16.17;;;10.23;;
16963;SDS011;8598;50.508;10.436;2023-11-18T11:20:02;22.90;;;15.60;;
16963;SDS011;8598;50.508;10.436;2023-11-18T11:22:45;22.77;;;15.67;;
16963;SDS011;8598;50.508;10.436;2023-11-18T11:25:24;35.73;;;23.80;;
16963;SDS011;8598;50.508;10.436;2023-11-18T11:28:00;52.40;;;29.33;;
16963;SDS011;8598;50.508;10.436;2023-11-18T11:30:40;70.47;;;36.03;;
16963;SDS011;8598;50.508;10.436;2023-11-18T11:33:13;53.83;;;30.47;;
16963;SDS011;8598;50.508;10.436;2023-11-18T11:35:45;68.20;;;42.13;;
16963;SDS011;8598;50.508;10.436;2023-11-18T11:38:23;49.63;;;31.37;;
16963;SDS011;8598;50.508;10.436;2023-11-18T11:40:52;36.00;;;22.60;;
16963;SDS011;8598;50.508;10.436;2023-11-18T11:43:20;30.37;;;16.43;;
16963;SDS011;8598;50.508;10.436;2023-11-18T11:45:47;20.97;;;13.90;;
16963;SDS011;8598;50.508;10.436;2023-11-18T11:48:16;22.10;;;12.97;;
16963;SDS011;8598;50.508;10.436;2023-11-18T11:51:00;23.37;;;13.97;;
16963;SDS011;8598;50.508;10.436;2023-11-18T11:53:40;26.00;;;12.60;;
16963;SDS011;8598;50.508;10.436;2023-11-18T11:56:11;24.17;;;13.17;;
16963;SDS011;8598;50.508;10.436;2023-11-18T11:58:45;21.30;;;11.80;;
16963;SDS011;8598;50.508;10.436;2023-11-18T12:01:21;20.87;;;11.70;;
16963;SDS011;8598;50.508;10.436;2023-11-18T12:03:55;21.93;;;12.60;;
16963;SDS011;8598;50.508;10.436;2023-11-18T12:06:23;28.40;;;13.33;;
16963;SDS011;8598;50.508;10.436;2023-11-18T12:08:52;29.10;;;14.97;;
16963;SDS011;8598;50.508;10.436;2023-11-18T12:11:20;31.03;;;15.63;;
16963;SDS011;8598;50.508;10.436;2023-11-18T12:14:00;33.90;;;14.30;;
16963;SDS011;8598;50.508;10.436;2023-11-18T12:19:32;31.90;;;16.93;;
16963;SDS011;8598;50.508;10.436;2023-11-18T12:22:09;35.13;;;16.63;;
16963;SDS011;8598;50.508;10.436;2023-11-18T12:24:45;34.40;;;15.70;;
16963;SDS011;8598;50.508;10.436;2023-11-18T12:33:08;27.47;;;11.87;;
16963;SDS011;8598;50.508;10.436;2023-11-18T12:35:38;23.30;;;11.03;;
16963;SDS011;8598;50.508;10.436;2023-11-18T12:38:38;25.33;;;12.00;;
16963;SDS011;8598;50.508;10.436;2023-11-18T12:41:29;22.77;;;11.90;;
16963;SDS011;8598;50.508;10.436;2023-11-18T12:44:08;25.33;;;11.47;;
16963;SDS011;8598;50.508;10.436;2023-11-18T12:46:49;24.10;;;10.97;;
16963;SDS011;8598;50.508;10.436;2023-11-18T12:49:18;27.03;;;13.70;;
16963;SDS011;8598;50.508;10.436;2023-11-18T12:51:48;25.13;;;12.50;;
16963;SDS011;8598;50.508;10.436;2023-11-18T12:54:16;21.17;;;11.97;;
16963;SDS011;8598;50.508;10.436;2023-11-18T12:56:46;21.13;;;10.53;;
16963;SDS011;8598;50.508;10.436;2023-11-18T12:59:13;27.00;;;13.00;;
16963;SDS011;8598;50.508;10.436;2023-11-18T13:01:42;22.70;;;14.43;;
16963;SDS011;8598;50.508;10.436;2023-11-18T13:04:15;21.93;;;10.57;;
16963;SDS011;8598;50.508;10.436;2023-11-18T13:06:42;22.73;;;9.20;;
16963;SDS011;8598;50.508;10.436;2023-11-18T13:09:09;15.67;;;9.20;;
16963;SDS011;8598;50.508;10.436;2023-11-18T13:11:36;20.07;;;10.63;;
16963;SDS011;8598;50.508;10.436;2023-11-18T13:14:08;19.37;;;10.57;;
16963;SDS011;8598;50.508;10.436;2023-11-18T13:16:37;21.03;;;11.60;;
16963;SDS011;8598;50.508;10.436;2023-11-18T13:19:04;21.60;;;11.40;;
16963;SDS011;8598;50.508;10.436;2023-11-18T13:21:30;20.43;;;10.27;;
16963;SDS011;8598;50.508;10.436;2023-11-18T13:24:01;22.17;;;11.30;;
16963;SDS011;8598;50.508;10.436;2023-11-18T13:26:30;18.43;;;10.00;;
16963;SDS011;8598;50.508;10.436;2023-11-18T13:28:58;24.07;;;13.47;;
16963;SDS011;8598;50.508;10.436;2023-11-18T13:31:28;18.77;;;11.40;;
16963;SDS011;8598;50.508;10.436;2023-11-18T13:33:55;16.27;;;9.77;;
16963;SDS011;8598;50.508;10.436;2023-11-18T13:36:22;19.23;;;10.57;;
16963;SDS011;8598;50.508;10.436;2023-11-18T13:38:49;21.00;;;11.13;;
16963;SDS011;8598;50.508;10.436;2023-11-18T13:41:27;19.00;;;10.20;;
16963;SDS011;8598;50.508;10.436;2023-11-18T13:43:55;18.93;;;10.33;;
16963;SDS011;8598;50.508;10.436;2023-11-18T13:46:23;57.93;;;27.13;;
16963;SDS011;8598;50.508;10.436;2023-11-18T13:48:52;31.70;;;15.33;;
16963;SDS011;8598;50.508;10.436;2023-11-18T13:51:19;29.90;;;15.10;;
16963;SDS011;8598;50.508;10.436;2023-11-18T13:53:47;37.93;;;18.33;;
16963;SDS011;8598;50.508;10.436;2023-11-18T13:56:13;40.27;;;17.30;;
16963;SDS011;8598;50.508;10.436;2023-11-18T13:58:42;45.80;;;18.70;;
16963;SDS011;8598;50.508;10.436;2023-11-18T14:01:11;41.93;;;18.83;;
16963;SDS011;8598;50.508;10.436;2023-11-18T14:03:39;40.80;;;21.30;;
16963;SDS011;8598;50.508;10.436;2023-11-18T14:06:10;69.03;;;32.13;;
16963;SDS011;8598;50.508;10.436;2023-11-18T14:08:37;55.57;;;28.90;;
16963;SDS011;8598;50.508;10.436;2023-11-18T14:11:04;55.63;;;25.40;;
16963;SDS011;8598;50.508;10.436;2023-11-18T14:13:34;43.13;;;21.47;;
16963;SDS011;8598;50.508;10.436;2023-11-18T14:16:00;40.63;;;18.63;;
16963;SDS011;8598;50.508;10.436;2023-11-18T14:18:28;34.80;;;17.60;;
16963;SDS011;8598;50.508;10.436;2023-11-18T14:20:55;34.20;;;17.33;;
16963;SDS011;8598;50.508;10.436;2023-11-18T14:23:23;29.13;;;15.80;;
16963;SDS011;8598;50.508;10.436;2023-11-18T14:25:50;26.27;;;15.73;;
16963;SDS011;8598;50.508;10.436;2023-11-18T14:28:17;22.73;;;12.90;;
16963;SDS011;8598;50.508;10.436;2023-11-18T14:30:44;21.80;;;11.77;;
16963;SDS011;8598;50.508;10.436;2023-11-18T14:33:10;34.10;;;15.33;;
16963;SDS011;8598;50.508;10.436;2023-11-18T14:35:37;28.80;;;12.47;;
16963;SDS011;8598;50.508;10.436;2023-11-18T14:38:05;32.70;;;14.57;;
16963;SDS011;8598;50.508;10.436;2023-11-18T14:40:34;28.43;;;14.90;;
16963;SDS011;8598;50.508;10.436;2023-11-18T14:43:01;26.57;;;12.80;;
16963;SDS011;8598;50.508;10.436;2023-11-18T14:45:29;25.47;;;12.80;;
16963;SDS011;8598;50.508;10.436;2023-11-18T14:47:57;37.97;;;19.20;;
16963;SDS011;8598;50.508;10.436;2023-11-18T14:50:24;33.00;;;14.50;;